Muncie, IN

8:29 AM EDT on July 28, 2017 (GMT -0400)
Delaware County-Johnson

Weather History for KMIE - March, 2013

Change the Weather History Date:

Sunday, March 24, 2013

  Actual Average Record
Temperature  
Mean Temperature 32 °F 43 °F  
Max Temperature 35 °F 52 °F 77 °F (2017)
Min Temperature 29 °F 33 °F 6 °F (1974)
Degree Days  
Heating Degree Days 33 22  
Month to date heating degree days 726 641  
Since 1 July heating degree days 4740 5024  
Cooling Degree Days 0 0  
Month to date cooling degree days 0 0  
Year to date cooling degree days 0 0  
Moisture  
Dew Point 26 °F    
Average Humidity 78    
Maximum Humidity 92    
Minimum Humidity 64    
Precipitation  
Precipitation 0.18 in 0.10 in 0.89 in (2016)
Month to date precipitation 1.14 2.20  
Year to date precipitation 6.81 6.74  
Sea Level Pressure  
Sea Level Pressure 29.63 in    
Wind  
Wind Speed 15 mph (ENE)    
Max Wind Speed 28 mph    
Max Gust Speed 36 mph    
Visibility 3 miles    
Events Fog , Snow    
T = Trace of Precipitation, MM = Missing Value Source: NWS Daily Summary

Daily Weather History Graph

Daily Weather History Graph

Search for Another Location

Airport or City:

Trip Planner

Search our weather history database for the weather conditions in past years. The results will help you decide how hot, cold, wet, or windy it might be!

Date:

Astronomy

Mar. 24, 2013 Rise Set
Actual Time 7:38 AM EDT 7:58 PM EDT
Civil Twilight 7:10 AM EDT 8:25 PM EDT
Nautical Twilight 6:39 AM EDT 8:57 PM EDT
Astronomical Twilight 6:06 AM EDT 9:29 PM EDT
Moon 5:25 PM EDT (3/24) 5:48 AM EDT (3/24)
Length of Visible Light 13h 14m
Length of Day
12h 20m
Waxing Gibbous, 91% of the Moon is Illuminated
Mar 24
Waxing Gibbous
Mar 27
Full
Apr 3
Last Quarter
Apr 10
New
Apr 18
First Quarter

Hourly Weather History & Observations

Time (EDT) Temp. Windchill Dew Point Humidity Pressure Visibility Wind Dir Wind Speed Gust Speed Precip Events Conditions
12:53 AM 33.1 °F 26.9 °F 25.0 °F 72% 29.95 in 9.0 mi ENE 6.9 mph - N/A   Clear
1:53 AM 33.1 °F 24.9 °F 25.0 °F 72% 29.92 in 8.0 mi ENE 10.4 mph - N/A   Clear
2:53 AM 33.1 °F 24.4 °F 24.1 °F 70% 29.93 in 9.0 mi East 11.5 mph - N/A   Clear
3:53 AM 32.0 °F 23.0 °F 23.0 °F 69% 29.91 in 10.0 mi ENE 11.5 mph - N/A   Clear
4:53 AM 32.0 °F 23.0 °F 23.0 °F 69% 29.90 in 9.0 mi East 11.5 mph - N/A   Clear
5:53 AM 32.0 °F 22.1 °F 24.1 °F 73% 29.86 in 9.0 mi ENE 13.8 mph - N/A   Mostly Cloudy
6:53 AM 32.0 °F 23.0 °F 24.1 °F 73% 29.84 in 9.0 mi ENE 11.5 mph - N/A   Overcast
7:53 AM 32.0 °F 22.5 °F 24.1 °F 73% 29.83 in 10.0 mi ENE 12.7 mph - N/A   Overcast
8:31 AM 32.0 °F 24.2 °F 24.8 °F 75% 29.81 in 2.5 mi ENE 9.2 mph - 0.00 in Snow Light Snow
8:38 AM 30.2 °F 22.6 °F 24.8 °F 80% 29.81 in 0.8 mi ENE 8.1 mph - 0.00 in Snow Light Snow
8:50 AM 30.2 °F 21.3 °F 26.6 °F 86% 29.80 in 0.5 mi NE 10.4 mph - 0.00 in Snow Snow
8:53 AM 30.9 °F 22.8 °F 26.1 °F 82% 29.82 in 0.5 mi ENE 9.2 mph - 0.00 in Snow Snow
8:58 AM 30.2 °F 22.6 °F 26.6 °F 86% 29.80 in 0.2 mi ENE 8.1 mph - 0.00 in Fog , Snow Heavy Snow
9:36 AM 30.2 °F 19.3 °F 26.6 °F 86% 29.78 in 0.5 mi NE 15.0 mph - 0.02 in Fog , Snow Snow
9:49 AM 30.2 °F 19.8 °F 26.6 °F 86% 29.77 in 0.8 mi NE 13.8 mph - 0.02 in Snow Light Snow
9:53 AM 30.0 °F 20.0 °F 27.0 °F 88% 29.79 in 1.2 mi NE 12.7 mph - 0.02 in Snow Light Snow
10:13 AM 30.2 °F 20.8 °F 26.6 °F 86% 29.76 in 0.5 mi ENE 11.5 mph - 0.00 in Fog , Snow Snow
10:35 AM 30.2 °F 19.3 °F 26.6 °F 86% 29.75 in 1.5 mi ENE 15.0 mph - 0.00 in Snow Light Snow
10:44 AM 30.2 °F 19.8 °F 26.6 °F 86% 29.75 in 3.0 mi ENE 13.8 mph - 0.00 in Snow Light Snow
10:53 AM 30.9 °F 20.7 °F 27.0 °F 85% 29.76 in 4.0 mi ENE 13.8 mph - 0.00 in Snow Light Snow
11:01 AM 30.2 °F 19.3 °F 26.6 °F 86% 29.74 in 4.0 mi ENE 15.0 mph - 0.00 in Snow Light Snow
11:53 AM 32.0 °F 21.2 °F 27.0 °F 82% 29.72 in 5.0 mi ENE 16.1 mph - 0.00 in   Haze
12:36 PM 33.8 °F 22.5 °F 26.6 °F 75% 29.70 in 2.0 mi ENE 19.6 mph 23.0 mph 0.00 in Snow Light Snow
12:49 PM 33.8 °F 23.9 °F 28.4 °F 81% 29.69 in 1.8 mi East 15.0 mph - 0.00 in Snow Light Snow
12:53 PM 33.1 °F 24.4 °F 28.0 °F 82% 29.70 in 1.5 mi ENE 11.5 mph - 0.00 in Snow Light Snow
1:45 PM 33.8 °F 26.4 °F 28.4 °F 81% 29.67 in 1.0 mi ENE 9.2 mph - 0.00 in Snow Light Snow
1:53 PM 33.1 °F 24.4 °F 28.9 °F 85% 29.68 in 1.0 mi ENE 11.5 mph - 0.01 in Snow Light Snow
2:24 PM 33.8 °F 22.8 °F 28.4 °F 81% 29.63 in 1.0 mi ENE 18.4 mph - 0.00 in Snow Light Snow
2:29 PM 33.8 °F 22.8 °F 28.4 °F 81% 29.62 in 0.8 mi ENE 18.4 mph - 0.00 in Snow Light Snow
2:49 PM 33.8 °F 21.9 °F 28.4 °F 81% 29.59 in 1.0 mi ENE 21.9 mph 28.8 mph 0.00 in Snow Light Snow
2:53 PM 32.0 °F 19.2 °F 28.0 °F 85% 29.60 in 1.0 mi ENE 23.0 mph 31.1 mph 0.00 in Snow Light Snow
3:20 PM 33.8 °F 21.0 °F 28.4 °F 81% 29.55 in 2.5 mi ENE 25.3 mph 31.1 mph 0.00 in   Haze
3:27 PM 33.8 °F 21.9 °F 28.4 °F 81% 29.54 in 4.0 mi ENE 21.9 mph 31.1 mph 0.00 in   Haze
3:53 PM 33.1 °F 21.5 °F 28.0 °F 82% 29.56 in 6.0 mi East 19.6 mph 27.6 mph 0.00 in   Haze
4:25 PM 33.8 °F 21.0 °F 26.6 °F 75% 29.52 in 10.0 mi East 25.3 mph 33.4 mph N/A   Overcast
4:53 PM 35.1 °F 22.7 °F 24.1 °F 64% 29.51 in 10.0 mi ENE 25.3 mph 34.5 mph N/A   Overcast
5:16 PM 35.6 °F 24.5 °F 24.8 °F 65% 29.50 in 10.0 mi ENE 20.7 mph 33.4 mph N/A   Overcast
5:53 PM 34.0 °F 21.5 °F 24.1 °F 67% 29.49 in 6.0 mi ENE 24.2 mph 34.5 mph 0.01 in Snow Light Snow
6:13 PM 33.8 °F 21.6 °F 24.8 °F 70% 29.47 in 4.0 mi East 23.0 mph 31.1 mph 0.00 in Snow Light Snow
6:36 PM 33.8 °F 21.0 °F 24.8 °F 70% 29.47 in 4.0 mi ENE 25.3 mph 33.4 mph 0.00 in Snow Light Snow
6:44 PM 33.8 °F 22.8 °F 24.8 °F 70% 29.46 in 2.5 mi ENE 18.4 mph 33.4 mph 0.00 in Snow Light Snow
6:53 PM 33.1 °F 23.4 °F 25.0 °F 72% 29.49 in 2.5 mi ENE 13.8 mph 26.5 mph 0.00 in Snow Light Snow
7:03 PM 33.8 °F 22.2 °F 24.8 °F 70% 29.48 in 3.0 mi ENE 20.7 mph 26.5 mph 0.00 in Snow Light Snow
7:09 PM 32.0 °F 19.8 °F 24.8 °F 75% 29.48 in 1.8 mi ENE 20.7 mph 28.8 mph 0.00 in Snow Light Snow
7:20 PM 32.0 °F 20.8 °F 24.8 °F 75% 29.48 in 0.8 mi ENE 17.3 mph 25.3 mph 0.00 in Snow Light Snow
7:30 PM 30.2 °F 19.8 °F 26.6 °F 86% 29.49 in 0.5 mi ENE 13.8 mph 23.0 mph 0.01 in Snow Snow
7:42 PM 30.2 °F 18.9 °F 26.6 °F 86% 29.49 in 1.0 mi ENE 16.1 mph 21.9 mph 0.01 in Snow Light Snow
7:53 PM 30.9 °F 18.7 °F 26.1 °F 82% 29.50 in 1.0 mi ENE 19.6 mph 26.5 mph 0.02 in Snow Light Snow
8:16 PM 30.2 °F 18.5 °F 26.6 °F 86% 29.47 in 0.8 mi ENE 17.3 mph 31.1 mph 0.00 in Snow Light Snow
8:31 PM 30.2 °F 19.8 °F 26.6 °F 86% 29.49 in 0.5 mi ENE 13.8 mph - 0.01 in Fog , Snow Snow
8:49 PM 30.2 °F 18.5 °F 26.6 °F 86% 29.49 in 0.2 mi ENE 17.3 mph 25.3 mph 0.03 in Fog , Snow Heavy Snow
8:53 PM 30.0 °F 18.7 °F 27.0 °F 88% 29.51 in 0.2 mi ENE 16.1 mph 25.3 mph 0.04 in Fog , Snow Heavy Snow
9:39 PM 28.4 °F 15.8 °F 26.6 °F 93% 29.48 in 0.8 mi ENE 18.4 mph 25.3 mph 0.04 in Snow Light Snow
9:51 PM 28.4 °F 16.2 °F 26.6 °F 93% 29.49 in 1.2 mi NE 17.3 mph 25.3 mph 0.04 in Snow Light Snow
9:53 PM 28.9 °F 17.3 °F 26.1 °F 89% 29.51 in 1.2 mi ENE 16.1 mph 25.3 mph 0.04 in Snow Light Snow
10:03 PM 28.4 °F 15.8 °F 26.6 °F 93% 29.50 in 1.0 mi ENE 18.4 mph - 0.00 in Snow Light Snow
10:18 PM 28.4 °F 15.4 °F 26.6 °F 93% 29.50 in 0.8 mi NE 19.6 mph 24.2 mph 0.01 in Snow Light Snow
10:20 PM 28.4 °F 16.2 °F 24.8 °F 86% 29.50 in 1.0 mi NE 17.3 mph 24.2 mph 0.01 in Snow Light Snow
10:53 PM 28.9 °F 16.9 °F 26.1 °F 89% 29.52 in 1.0 mi ENE 17.3 mph - 0.01 in Snow Light Snow
11:00 PM 28.4 °F 15.8 °F 26.6 °F 93% 29.50 in 0.8 mi NE 18.4 mph 21.9 mph 0.00 in Snow Light Snow
11:10 PM 28.4 °F 17.5 °F 26.6 °F 93% 29.50 in 0.8 mi NE 13.8 mph - 0.00 in Snow Light Snow
11:53 PM 28.9 °F 17.7 °F 26.1 °F 89% 29.51 in 0.8 mi NE 15.0 mph - 0.01 in Snow Light Snow